sensor_id;sensor_type;location;lat;lon;timestamp;temperature;humidity
9760;DHT22;4919;48.792;9.202;2023-03-01T00:01:01;-2.80;23.70
9760;DHT22;4919;48.792;9.202;2023-03-01T00:03:46;-2.80;29.20
9760;DHT22;4919;48.792;9.202;2023-03-01T00:06:31;-2.80;32.00
9760;DHT22;4919;48.792;9.202;2023-03-01T00:09:17;-2.70;41.10
9760;DHT22;4919;48.792;9.202;2023-03-01T00:12:02;-2.70;38.20
9760;DHT22;4919;48.792;9.202;2023-03-01T00:14:46;-2.70;48.00
9760;DHT22;4919;48.792;9.202;2023-03-01T00:17:31;-2.70;41.50
9760;DHT22;4919;48.792;9.202;2023-03-01T00:20:16;-2.80;47.60
9760;DHT22;4919;48.792;9.202;2023-03-01T00:23:01;-2.90;62.60
9760;DHT22;4919;48.792;9.202;2023-03-01T00:25:46;-2.90;80.20
9760;DHT22;4919;48.792;9.202;2023-03-01T00:28:31;-3.00;90.90
9760;DHT22;4919;48.792;9.202;2023-03-01T00:31:22;-3.00;94.30
9760;DHT22;4919;48.792;9.202;2023-03-01T00:34:06;-3.00;98.50
9760;DHT22;4919;48.792;9.202;2023-03-01T00:36:51;-3.00;98.60
9760;DHT22;4919;48.792;9.202;2023-03-01T00:39:36;-3.00;99.90
9760;DHT22;4919;48.792;9.202;2023-03-01T00:42:21;-3.00;96.80
9760;DHT22;4919;48.792;9.202;2023-03-01T00:45:06;-3.00;98.10
9760;DHT22;4919;48.792;9.202;2023-03-01T00:47:51;-3.10;99.90
9760;DHT22;4919;48.792;9.202;2023-03-01T00:50:36;-3.10;99.90
9760;DHT22;4919;48.792;9.202;2023-03-01T00:53:21;-3.20;99.90
9760;DHT22;4919;48.792;9.202;2023-03-01T00:56:08;-3.20;99.90
9760;DHT22;4919;48.792;9.202;2023-03-01T00:58:53;-3.30;99.90
9760;DHT22;4919;48.792;9.202;2023-03-01T01:01:38;-3.30;99.90
9760;DHT22;4919;48.792;9.202;2023-03-01T01:04:23;-3.30;99.90
9760;DHT22;4919;48.792;9.202;2023-03-01T01:07:08;-3.20;99.90
9760;DHT22;4919;48.792;9.202;2023-03-01T01:09:53;-3.30;99.90
9760;DHT22;4919;48.792;9.202;2023-03-01T01:12:38;-3.30;99.90
9760;DHT22;4919;48.792;9.202;2023-03-01T01:15:23;-3.40;99.90
9760;DHT22;4919;48.792;9.202;2023-03-01T01:18:08;-3.40;99.90
9760;DHT22;4919;48.792;9.202;2023-03-01T01:20:53;-3.50;99.90
9760;DHT22;4919;48.792;9.202;2023-03-01T01:23:39;-3.50;99.90
9760;DHT22;4919;48.792;9.202;2023-03-01T01:26:29;-3.40;99.90
9760;DHT22;4919;48.792;9.202;2023-03-01T01:29:14;-3.40;99.90
9760;DHT22;4919;48.792;9.202;2023-03-01T01:31:59;-3.50;99.90
9760;DHT22;4919;48.792;9.202;2023-03-01T01:34:44;-3.40;99.90
9760;DHT22;4919;48.792;9.202;2023-03-01T01:37:29;-3.50;99.90
9760;DHT22;4919;48.792;9.202;2023-03-01T01:40:14;-3.40;99.90
9760;DHT22;4919;48.792;9.202;2023-03-01T01:42:58;-3.60;99.90
9760;DHT22;4919;48.792;9.202;2023-03-01T01:45:43;-3.50;99.90
9760;DHT22;4919;48.792;9.202;2023-03-01T01:48:56;-3.50;99.90
9760;DHT22;4919;48.792;9.202;2023-03-01T01:51:44;-3.50;99.90
9760;DHT22;4919;48.792;9.202;2023-03-01T01:54:50;-3.50;99.90
9760;DHT22;4919;48.792;9.202;2023-03-01T01:57:41;-3.50;99.90
9760;DHT22;4919;48.792;9.202;2023-03-01T02:00:29;-3.60;99.90
9760;DHT22;4919;48.792;9.202;2023-03-01T02:03:18;-3.70;99.90
9760;DHT22;4919;48.792;9.202;2023-03-01T02:06:19;-3.70;99.90
9760;DHT22;4919;48.792;9.202;2023-03-01T02:09:10;-3.70;99.90
9760;DHT22;4919;48.792;9.202;2023-03-01T02:11:57;-3.70;99.90
9760;DHT22;4919;48.792;9.202;2023-03-01T02:14:42;-3.70;99.90
9760;DHT22;4919;48.792;9.202;2023-03-01T02:17:27;-3.70;99.90
9760;DHT22;4919;48.792;9.202;2023-03-01T02:23:23;-3.90;99.90
9760;DHT22;4919;48.792;9.202;2023-03-01T02:29:10;-3.80;99.90
9760;DHT22;4919;48.792;9.202;2023-03-01T02:31:57;-3.80;99.90
9760;DHT22;4919;48.792;9.202;2023-03-01T02:34:43;-4.00;99.90
9760;DHT22;4919;48.792;9.202;2023-03-01T02:37:27;-3.90;99.90
9760;DHT22;4919;48.792;9.202;2023-03-01T02:40:15;-3.90;99.90
9760;DHT22;4919;48.792;9.202;2023-03-01T02:43:04;-3.90;99.90
9760;DHT22;4919;48.792;9.202;2023-03-01T02:45:52;-3.90;99.90
9760;DHT22;4919;48.792;9.202;2023-03-01T02:48:48;-3.90;99.90
9760;DHT22;4919;48.792;9.202;2023-03-01T02:55:01;-4.00;99.90
9760;DHT22;4919;48.792;9.202;2023-03-01T02:57:48;-4.00;99.90
9760;DHT22;4919;48.792;9.202;2023-03-01T03:00:36;-4.10;99.90
9760;DHT22;4919;48.792;9.202;2023-03-01T03:03:22;-4.10;99.90
9760;DHT22;4919;48.792;9.202;2023-03-01T03:06:07;-4.00;99.90
9760;DHT22;4919;48.792;9.202;2023-03-01T03:08:52;-4.00;99.90
9760;DHT22;4919;48.792;9.202;2023-03-01T03:11:37;-4.10;99.90
9760;DHT22;4919;48.792;9.202;2023-03-01T03:14:22;-4.00;99.90
9760;DHT22;4919;48.792;9.202;2023-03-01T03:17:07;-4.10;99.90
9760;DHT22;4919;48.792;9.202;2023-03-01T03:19:52;-4.10;99.90
9760;DHT22;4919;48.792;9.202;2023-03-01T03:22:39;-4.00;99.90
9760;DHT22;4919;48.792;9.202;2023-03-01T03:25:25;-4.10;99.90
9760;DHT22;4919;48.792;9.202;2023-03-01T03:28:10;-4.10;99.90
9760;DHT22;4919;48.792;9.202;2023-03-01T03:30:55;-4.20;99.90
9760;DHT22;4919;48.792;9.202;2023-03-01T03:33:40;-4.30;99.90
9760;DHT22;4919;48.792;9.202;2023-03-01T03:36:25;-4.30;99.90
9760;DHT22;4919;48.792;9.202;2023-03-01T03:39:10;-4.30;99.90
9760;DHT22;4919;48.792;9.202;2023-03-01T03:41:55;-4.30;99.90
9760;DHT22;4919;48.792;9.202;2023-03-01T03:44:39;-4.30;99.90
9760;DHT22;4919;48.792;9.202;2023-03-01T03:47:24;-4.20;99.90
9760;DHT22;4919;48.792;9.202;2023-03-01T03:50:11;-4.20;99.90
9760;DHT22;4919;48.792;9.202;2023-03-01T03:52:56;-4.20;99.90
9760;DHT22;4919;48.792;9.202;2023-03-01T03:55:41;-4.30;99.90
9760;DHT22;4919;48.792;9.202;2023-03-01T03:58:26;-4.30;99.90
9760;DHT22;4919;48.792;9.202;2023-03-01T04:01:10;-4.30;99.90
9760;DHT22;4919;48.792;9.202;2023-03-01T04:03:55;-4.30;99.90
9760;DHT22;4919;48.792;9.202;2023-03-01T04:06:40;-4.30;99.90
9760;DHT22;4919;48.792;9.202;2023-03-01T04:09:25;-4.40;99.90
9760;DHT22;4919;48.792;9.202;2023-03-01T04:12:10;-4.50;99.90
9760;DHT22;4919;48.792;9.202;2023-03-01T04:14:55;-4.50;99.90
9760;DHT22;4919;48.792;9.202;2023-03-01T04:17:41;-4.50;99.90
9760;DHT22;4919;48.792;9.202;2023-03-01T04:20:29;-4.50;99.90
9760;DHT22;4919;48.792;9.202;2023-03-01T04:23:19;-4.50;99.90
9760;DHT22;4919;48.792;9.202;2023-03-01T04:26:04;-4.60;99.90
9760;DHT22;4919;48.792;9.202;2023-03-01T04:28:48;-4.50;99.90
9760;DHT22;4919;48.792;9.202;2023-03-01T04:31:33;-4.50;99.90
9760;DHT22;4919;48.792;9.202;2023-03-01T04:34:18;-4.60;99.90
9760;DHT22;4919;48.792;9.202;2023-03-01T04:37:03;-4.60;99.90
9760;DHT22;4919;48.792;9.202;2023-03-01T04:39:48;-4.60;99.90
9760;DHT22;4919;48.792;9.202;2023-03-01T04:42:33;-4.60;99.90
9760;DHT22;4919;48.792;9.202;2023-03-01T04:45:18;-4.60;99.90
9760;DHT22;4919;48.792;9.202;2023-03-01T04:48:03;-4.50;99.90
9760;DHT22;4919;48.792;9.202;2023-03-01T04:50:48;-4.60;99.90
9760;DHT22;4919;48.792;9.202;2023-03-01T04:53:33;-4.60;99.90
9760;DHT22;4919;48.792;9.202;2023-03-01T04:56:18;-4.60;99.90
9760;DHT22;4919;48.792;9.202;2023-03-01T04:59:03;-4.50;99.90
9760;DHT22;4919;48.792;9.202;2023-03-01T05:01:49;-4.60;99.90
9760;DHT22;4919;48.792;9.202;2023-03-01T05:04:34;-4.70;99.90
9760;DHT22;4919;48.792;9.202;2023-03-01T05:07:19;-4.60;99.90
9760;DHT22;4919;48.792;9.202;2023-03-01T05:10:04;-4.70;99.90
9760;DHT22;4919;48.792;9.202;2023-03-01T05:12:49;-4.80;99.90
9760;DHT22;4919;48.792;9.202;2023-03-01T05:15:34;-4.70;99.90
9760;DHT22;4919;48.792;9.202;2023-03-01T05:18:19;-4.70;99.90
9760;DHT22;4919;48.792;9.202;2023-03-01T05:21:10;-4.80;99.90
9760;DHT22;4919;48.792;9.202;2023-03-01T05:23:54;-4.90;99.90
9760;DHT22;4919;48.792;9.202;2023-03-01T05:26:39;-4.90;99.90
9760;DHT22;4919;48.792;9.202;2023-03-01T05:29:26;-4.80;99.90
9760;DHT22;4919;48.792;9.202;2023-03-01T05:32:10;-4.70;99.90
9760;DHT22;4919;48.792;9.202;2023-03-01T05:34:55;-4.70;99.90
9760;DHT22;4919;48.792;9.202;2023-03-01T05:37:45;-4.80;99.90
9760;DHT22;4919;48.792;9.202;2023-03-01T05:40:30;-4.90;99.90
9760;DHT22;4919;48.792;9.202;2023-03-01T05:43:16;-4.80;99.90
9760;DHT22;4919;48.792;9.202;2023-03-01T05:46:01;-4.90;99.90
9760;DHT22;4919;48.792;9.202;2023-03-01T05:48:45;-5.00;99.90
9760;DHT22;4919;48.792;9.202;2023-03-01T05:51:30;-4.90;99.90
9760;DHT22;4919;48.792;9.202;2023-03-01T05:54:15;-4.80;99.90
9760;DHT22;4919;48.792;9.202;2023-03-01T05:57:00;-4.90;99.90
9760;DHT22;4919;48.792;9.202;2023-03-01T05:59:45;-4.90;99.90
9760;DHT22;4919;48.792;9.202;2023-03-01T06:02:30;-4.90;99.90
9760;DHT22;4919;48.792;9.202;2023-03-01T06:05:15;-5.00;99.90
9760;DHT22;4919;48.792;9.202;2023-03-01T06:08:00;-5.00;99.90
9760;DHT22;4919;48.792;9.202;2023-03-01T06:10:46;-4.90;99.90
9760;DHT22;4919;48.792;9.202;2023-03-01T06:13:31;-4.80;99.90
9760;DHT22;4919;48.792;9.202;2023-03-01T06:16:16;-4.80;99.90
9760;DHT22;4919;48.792;9.202;2023-03-01T06:19:00;-4.80;99.90
9760;DHT22;4919;48.792;9.202;2023-03-01T06:21:45;-4.80;99.90
9760;DHT22;4919;48.792;9.202;2023-03-01T06:24:30;-4.60;99.90
9760;DHT22;4919;48.792;9.202;2023-03-01T06:27:15;-4.60;99.90
9760;DHT22;4919;48.792;9.202;2023-03-01T06:30:00;-4.60;99.90
9760;DHT22;4919;48.792;9.202;2023-03-01T06:32:44;-4.50;99.90
9760;DHT22;4919;48.792;9.202;2023-03-01T06:35:30;-4.30;99.90
9760;DHT22;4919;48.792;9.202;2023-03-01T06:38:15;-4.10;99.90
9760;DHT22;4919;48.792;9.202;2023-03-01T06:40:59;-4.00;99.90
9760;DHT22;4919;48.792;9.202;2023-03-01T06:43:44;-4.00;99.90
9760;DHT22;4919;48.792;9.202;2023-03-01T06:46:30;-3.90;99.90
9760;DHT22;4919;48.792;9.202;2023-03-01T06:49:14;-3.90;99.90
9760;DHT22;4919;48.792;9.202;2023-03-01T06:51:59;-3.70;99.90
9760;DHT22;4919;48.792;9.202;2023-03-01T06:54:44;-3.40;99.90
9760;DHT22;4919;48.792;9.202;2023-03-01T06:57:29;-3.30;99.90
9760;DHT22;4919;48.792;9.202;2023-03-01T07:00:14;-3.20;99.90
9760;DHT22;4919;48.792;9.202;2023-03-01T07:03:00;-3.10;99.90
9760;DHT22;4919;48.792;9.202;2023-03-01T07:05:47;-3.00;99.90
9760;DHT22;4919;48.792;9.202;2023-03-01T07:08:32;-2.90;99.90
9760;DHT22;4919;48.792;9.202;2023-03-01T07:11:17;-2.80;99.90
9760;DHT22;4919;48.792;9.202;2023-03-01T07:14:02;-2.70;99.90
9760;DHT22;4919;48.792;9.202;2023-03-01T07:16:47;-2.60;99.90
9760;DHT22;4919;48.792;9.202;2023-03-01T07:19:31;-2.50;99.90
9760;DHT22;4919;48.792;9.202;2023-03-01T07:22:16;-2.30;99.90
9760;DHT22;4919;48.792;9.202;2023-03-01T07:25:01;-2.20;99.90
9760;DHT22;4919;48.792;9.202;2023-03-01T07:27:51;-2.10;99.90
9760;DHT22;4919;48.792;9.202;2023-03-01T07:30:35;-2.00;99.90
9760;DHT22;4919;48.792;9.202;2023-03-01T07:33:20;-1.80;99.90
9760;DHT22;4919;48.792;9.202;2023-03-01T07:36:06;-1.80;99.90
9760;DHT22;4919;48.792;9.202;2023-03-01T07:38:51;-1.60;99.90
9760;DHT22;4919;48.792;9.202;2023-03-01T07:41:36;-1.50;99.90
9760;DHT22;4919;48.792;9.202;2023-03-01T07:44:21;-1.40;99.90
9760;DHT22;4919;48.792;9.202;2023-03-01T07:47:05;-1.20;99.90
9760;DHT22;4919;48.792;9.202;2023-03-01T07:49:50;-0.90;99.90
9760;DHT22;4919;48.792;9.202;2023-03-01T07:52:35;-0.70;99.90
9760;DHT22;4919;48.792;9.202;2023-03-01T07:55:21;-0.50;99.90
9760;DHT22;4919;48.792;9.202;2023-03-01T07:58:06;-0.30;97.60
9760;DHT22;4919;48.792;9.202;2023-03-01T08:00:51;-0.10;83.60
9760;DHT22;4919;48.792;9.202;2023-03-01T08:03:36;0.00;38.70
9760;DHT22;4919;48.792;9.202;2023-03-01T08:06:21;0.20;12.60
9760;DHT22;4919;48.792;9.202;2023-03-01T08:09:06;0.50;4.80
9760;DHT22;4919;48.792;9.202;2023-03-01T08:11:51;0.70;1.00
9760;DHT22;4919;48.792;9.202;2023-03-01T08:14:35;0.90;1.00
9760;DHT22;4919;48.792;9.202;2023-03-01T08:17:20;1.10;1.00
9760;DHT22;4919;48.792;9.202;2023-03-01T08:20:05;1.60;1.00
9760;DHT22;4919;48.792;9.202;2023-03-01T08:22:50;1.40;1.00
9760;DHT22;4919;48.792;9.202;2023-03-01T08:25:35;1.50;1.00
9760;DHT22;4919;48.792;9.202;2023-03-01T08:28:20;2.00;1.00
9760;DHT22;4919;48.792;9.202;2023-03-01T08:34:13;2.50;1.00
9760;DHT22;4919;48.792;9.202;2023-03-01T08:36:58;2.70;1.00
9760;DHT22;4919;48.792;9.202;2023-03-01T08:39:43;2.80;1.00
9760;DHT22;4919;48.792;9.202;2023-03-01T08:42:28;3.00;1.00
9760;DHT22;4919;48.792;9.202;2023-03-01T08:45:12;3.10;1.00
9760;DHT22;4919;48.792;9.202;2023-03-01T08:47:57;3.40;1.00
9760;DHT22;4919;48.792;9.202;2023-03-01T08:50:42;3.60;1.00
9760;DHT22;4919;48.792;9.202;2023-03-01T08:53:27;3.60;1.00
9760;DHT22;4919;48.792;9.202;2023-03-01T08:56:12;3.60;1.00
9760;DHT22;4919;48.792;9.202;2023-03-01T08:58:57;3.60;1.00
9760;DHT22;4919;48.792;9.202;2023-03-01T09:01:42;3.80;1.00
9760;DHT22;4919;48.792;9.202;2023-03-01T09:04:27;4.00;1.00
9760;DHT22;4919;48.792;9.202;2023-03-01T09:07:12;4.30;1.00
9760;DHT22;4919;48.792;9.202;2023-03-01T09:09:57;4.30;1.00
9760;DHT22;4919;48.792;9.202;2023-03-01T09:12:41;4.60;1.00
9760;DHT22;4919;48.792;9.202;2023-03-01T09:15:26;4.70;1.00
9760;DHT22;4919;48.792;9.202;2023-03-01T09:18:11;4.80;1.00
9760;DHT22;4919;48.792;9.202;2023-03-01T09:21:11;5.00;1.00
9760;DHT22;4919;48.792;9.202;2023-03-01T09:23:56;5.10;1.00
9760;DHT22;4919;48.792;9.202;2023-03-01T09:26:42;5.00;1.00
9760;DHT22;4919;48.792;9.202;2023-03-01T09:29:27;5.30;1.00
9760;DHT22;4919;48.792;9.202;2023-03-01T09:32:12;5.40;1.00
9760;DHT22;4919;48.792;9.202;2023-03-01T09:34:57;5.70;1.00
9760;DHT22;4919;48.792;9.202;2023-03-01T09:37:41;5.80;1.00
9760;DHT22;4919;48.792;9.202;2023-03-01T09:40:28;6.10;1.00
9760;DHT22;4919;48.792;9.202;2023-03-01T09:46:08;6.40;1.00
9760;DHT22;4919;48.792;9.202;2023-03-01T09:49:01;6.60;1.00
9760;DHT22;4919;48.792;9.202;2023-03-01T09:54:44;6.30;1.00
9760;DHT22;4919;48.792;9.202;2023-03-01T09:57:49;6.30;1.00
9760;DHT22;4919;48.792;9.202;2023-03-01T10:00:47;6.40;1.00
9760;DHT22;4919;48.792;9.202;2023-03-01T10:03:43;6.70;1.00
9760;DHT22;4919;48.792;9.202;2023-03-01T10:06:28;6.40;1.00
9760;DHT22;4919;48.792;9.202;2023-03-01T10:09:17;6.60;1.00
9760;DHT22;4919;48.792;9.202;2023-03-01T10:12:08;6.70;1.00
9760;DHT22;4919;48.792;9.202;2023-03-01T10:15:04;6.80;1.00
9760;DHT22;4919;48.792;9.202;2023-03-01T10:17:57;7.00;1.00
9760;DHT22;4919;48.792;9.202;2023-03-01T10:20:58;7.50;1.00
9760;DHT22;4919;48.792;9.202;2023-03-01T10:23:43;7.90;1.00
9760;DHT22;4919;48.792;9.202;2023-03-01T10:26:44;7.60;1.00
9760;DHT22;4919;48.792;9.202;2023-03-01T10:29:42;8.00;1.00
9760;DHT22;4919;48.792;9.202;2023-03-01T10:32:29;8.00;1.00
9760;DHT22;4919;48.792;9.202;2023-03-01T10:35:33;8.10;1.00
9760;DHT22;4919;48.792;9.202;2023-03-01T10:38:18;8.10;1.00
9760;DHT22;4919;48.792;9.202;2023-03-01T10:41:07;7.80;1.00
9760;DHT22;4919;48.792;9.202;2023-03-01T10:43:57;7.30;1.00
9760;DHT22;4919;48.792;9.202;2023-03-01T10:46:42;7.20;1.00
9760;DHT22;4919;48.792;9.202;2023-03-01T10:49:27;7.10;1.00
9760;DHT22;4919;48.792;9.202;2023-03-01T10:52:37;7.40;1.00
9760;DHT22;4919;48.792;9.202;2023-03-01T10:58:21;6.90;1.00
9760;DHT22;4919;48.792;9.202;2023-03-01T11:01:27;6.90;1.00
9760;DHT22;4919;48.792;9.202;2023-03-01T11:04:13;7.20;1.00
9760;DHT22;4919;48.792;9.202;2023-03-01T11:06:59;7.80;1.00
9760;DHT22;4919;48.792;9.202;2023-03-01T11:09:44;8.20;1.00
9760;DHT22;4919;48.792;9.202;2023-03-01T11:12:29;7.50;1.00
9760;DHT22;4919;48.792;9.202;2023-03-01T11:15:40;7.30;1.00
9760;DHT22;4919;48.792;9.202;2023-03-01T11:18:26;7.80;1.00
9760;DHT22;4919;48.792;9.202;2023-03-01T11:21:12;8.30;1.00
9760;DHT22;4919;48.792;9.202;2023-03-01T11:23:59;8.20;1.00
9760;DHT22;4919;48.792;9.202;2023-03-01T11:26:50;8.30;1.00
9760;DHT22;4919;48.792;9.202;2023-03-01T11:29:39;7.80;1.00
9760;DHT22;4919;48.792;9.202;2023-03-01T11:32:27;7.50;1.00
9760;DHT22;4919;48.792;9.202;2023-03-01T11:35:25;6.80;1.00
9760;DHT22;4919;48.792;9.202;2023-03-01T11:38:24;6.80;1.00
9760;DHT22;4919;48.792;9.202;2023-03-01T11:41:15;6.90;1.00
9760;DHT22;4919;48.792;9.202;2023-03-01T11:44:04;6.80;1.00
9760;DHT22;4919;48.792;9.202;2023-03-01T11:47:28;6.80;1.00
9760;DHT22;4919;48.792;9.202;2023-03-01T11:50:33;6.50;1.00
9760;DHT22;4919;48.792;9.202;2023-03-01T11:53:50;6.70;1.00
9760;DHT22;4919;48.792;9.202;2023-03-01T11:56:55;6.60;1.00
9760;DHT22;4919;48.792;9.202;2023-03-01T12:00:11;6.40;1.00
9760;DHT22;4919;48.792;9.202;2023-03-01T12:03:25;6.90;1.00
9760;DHT22;4919;48.792;9.202;2023-03-01T12:12:35;7.10;1.00
9760;DHT22;4919;48.792;9.202;2023-03-01T12:24:32;6.90;1.00
9760;DHT22;4919;48.792;9.202;2023-03-01T12:40:28;7.50;1.00
9760;DHT22;4919;48.792;9.202;2023-03-01T12:43:08;7.50;1.00
9760;DHT22;4919;48.792;9.202;2023-03-01T12:46:04;7.50;1.00
9760;DHT22;4919;48.792;9.202;2023-03-01T12:52:11;7.30;1.00
9760;DHT22;4919;48.792;9.202;2023-03-01T12:55:01;7.30;1.00
9760;DHT22;4919;48.792;9.202;2023-03-01T13:00:54;7.20;1.00
9760;DHT22;4919;48.792;9.202;2023-03-01T13:06:58;7.50;1.00
9760;DHT22;4919;48.792;9.202;2023-03-01T13:15:37;7.30;1.00
9760;DHT22;4919;48.792;9.202;2023-03-01T13:21:06;7.10;1.00
9760;DHT22;4919;48.792;9.202;2023-03-01T13:23:51;7.20;1.00
9760;DHT22;4919;48.792;9.202;2023-03-01T13:30:00;7.40;1.00
9760;DHT22;4919;48.792;9.202;2023-03-01T13:32:44;7.40;1.00
9760;DHT22;4919;48.792;9.202;2023-03-01T13:35:43;7.40;1.00
9760;DHT22;4919;48.792;9.202;2023-03-01T13:39:26;7.60;1.00
9760;DHT22;4919;48.792;9.202;2023-03-01T13:41:51;7.70;1.00
9760;DHT22;4919;48.792;9.202;2023-03-01T13:44:37;7.60;1.00
9760;DHT22;4919;48.792;9.202;2023-03-01T13:47:21;7.70;1.00
9760;DHT22;4919;48.792;9.202;2023-03-01T13:50:06;7.40;1.00
9760;DHT22;4919;48.792;9.202;2023-03-01T13:52:57;7.50;1.00
9760;DHT22;4919;48.792;9.202;2023-03-01T13:56:01;7.50;1.00
9760;DHT22;4919;48.792;9.202;2023-03-01T13:59:01;7.40;1.00
9760;DHT22;4919;48.792;9.202;2023-03-01T14:01:55;7.40;1.00
9760;DHT22;4919;48.792;9.202;2023-03-01T14:04:40;7.50;1.00
9760;DHT22;4919;48.792;9.202;2023-03-01T14:07:26;7.50;1.00
9760;DHT22;4919;48.792;9.202;2023-03-01T14:10:12;7.40;1.00
9760;DHT22;4919;48.792;9.202;2023-03-01T14:13:14;7.40;1.00
9760;DHT22;4919;48.792;9.202;2023-03-01T14:19:18;7.30;1.00
9760;DHT22;4919;48.792;9.202;2023-03-01T14:22:20;7.40;1.00
9760;DHT22;4919;48.792;9.202;2023-03-01T14:25:19;7.30;1.00
9760;DHT22;4919;48.792;9.202;2023-03-01T14:31:32;7.40;1.00
9760;DHT22;4919;48.792;9.202;2023-03-01T14:34:22;7.30;1.00
9760;DHT22;4919;48.792;9.202;2023-03-01T14:37:29;7.30;1.00
9760;DHT22;4919;48.792;9.202;2023-03-01T14:43:11;7.40;1.00
9760;DHT22;4919;48.792;9.202;2023-03-01T14:45:59;7.40;1.00
9760;DHT22;4919;48.792;9.202;2023-03-01T14:48:44;7.30;1.00
9760;DHT22;4919;48.792;9.202;2023-03-01T14:51:29;7.30;1.00
9760;DHT22;4919;48.792;9.202;2023-03-01T14:54:29;7.20;1.00
9760;DHT22;4919;48.792;9.202;2023-03-01T14:57:22;7.20;1.00
9760;DHT22;4919;48.792;9.202;2023-03-01T15:00:08;7.10;1.00
9760;DHT22;4919;48.792;9.202;2023-03-01T15:02:55;7.20;1.00
9760;DHT22;4919;48.792;9.202;2023-03-01T15:05:41;7.20;1.00
9760;DHT22;4919;48.792;9.202;2023-03-01T15:08:27;7.20;1.00
9760;DHT22;4919;48.792;9.202;2023-03-01T15:14:26;7.20;1.00
9760;DHT22;4919;48.792;9.202;2023-03-01T15:17:33;7.00;1.00
9760;DHT22;4919;48.792;9.202;2023-03-01T15:20:20;6.90;1.00
9760;DHT22;4919;48.792;9.202;2023-03-01T15:23:05;6.90;1.00
9760;DHT22;4919;48.792;9.202;2023-03-01T15:25:51;6.80;1.00
9760;DHT22;4919;48.792;9.202;2023-03-01T15:28:42;6.80;1.00
9760;DHT22;4919;48.792;9.202;2023-03-01T15:31:31;6.70;1.00
9760;DHT22;4919;48.792;9.202;2023-03-01T15:34:28;6.70;1.00
9760;DHT22;4919;48.792;9.202;2023-03-01T15:37:45;6.60;1.00
9760;DHT22;4919;48.792;9.202;2023-03-01T15:40:30;6.60;1.00
9760;DHT22;4919;48.792;9.202;2023-03-01T15:43:45;6.50;1.00
9760;DHT22;4919;48.792;9.202;2023-03-01T15:46:32;6.50;1.00
9760;DHT22;4919;48.792;9.202;2023-03-01T15:49:42;6.40;1.00
9760;DHT22;4919;48.792;9.202;2023-03-01T15:52:35;6.40;1.00
9760;DHT22;4919;48.792;9.202;2023-03-01T15:55:23;6.30;1.00
9760;DHT22;4919;48.792;9.202;2023-03-01T15:58:20;6.20;1.00
9760;DHT22;4919;48.792;9.202;2023-03-01T16:01:12;6.20;1.00
9760;DHT22;4919;48.792;9.202;2023-03-01T16:03:57;6.20;1.00
9760;DHT22;4919;48.792;9.202;2023-03-01T16:06:42;6.10;1.00
9760;DHT22;4919;48.792;9.202;2023-03-01T16:09:27;6.10;1.00
9760;DHT22;4919;48.792;9.202;2023-03-01T16:12:16;6.00;1.00
9760;DHT22;4919;48.792;9.202;2023-03-01T16:15:01;5.90;1.00
9760;DHT22;4919;48.792;9.202;2023-03-01T16:17:46;5.90;1.00
9760;DHT22;4919;48.792;9.202;2023-03-01T16:20:31;5.80;1.00
9760;DHT22;4919;48.792;9.202;2023-03-01T16:23:16;5.70;1.00
9760;DHT22;4919;48.792;9.202;2023-03-01T16:26:01;5.60;1.00
9760;DHT22;4919;48.792;9.202;2023-03-01T16:28:46;5.50;1.00
9760;DHT22;4919;48.792;9.202;2023-03-01T16:31:31;5.50;1.00
9760;DHT22;4919;48.792;9.202;2023-03-01T16:34:16;5.40;1.00
9760;DHT22;4919;48.792;9.202;2023-03-01T16:37:01;5.30;1.00
9760;DHT22;4919;48.792;9.202;2023-03-01T16:39:45;5.10;1.00
9760;DHT22;4919;48.792;9.202;2023-03-01T16:42:34;5.00;1.00
9760;DHT22;4919;48.792;9.202;2023-03-01T16:45:19;4.90;1.00
9760;DHT22;4919;48.792;9.202;2023-03-01T16:48:04;4.70;1.00
9760;DHT22;4919;48.792;9.202;2023-03-01T16:51:00;4.60;1.00
9760;DHT22;4919;48.792;9.202;2023-03-01T16:53:45;4.50;1.00
9760;DHT22;4919;48.792;9.202;2023-03-01T16:56:29;4.30;1.00
9760;DHT22;4919;48.792;9.202;2023-03-01T16:59:14;4.10;1.00
9760;DHT22;4919;48.792;9.202;2023-03-01T17:01:59;4.00;1.00
9760;DHT22;4919;48.792;9.202;2023-03-01T17:04:44;3.80;1.00
9760;DHT22;4919;48.792;9.202;2023-03-01T17:07:30;3.60;1.00
9760;DHT22;4919;48.792;9.202;2023-03-01T17:10:15;3.60;1.00
9760;DHT22;4919;48.792;9.202;2023-03-01T17:13:00;3.40;1.00
9760;DHT22;4919;48.792;9.202;2023-03-01T17:15:45;3.30;1.00
9760;DHT22;4919;48.792;9.202;2023-03-01T17:18:30;3.30;1.00
9760;DHT22;4919;48.792;9.202;2023-03-01T17:21:15;3.20;1.00
9760;DHT22;4919;48.792;9.202;2023-03-01T17:24:00;3.00;1.00
9760;DHT22;4919;48.792;9.202;2023-03-01T17:26:45;3.00;1.00
9760;DHT22;4919;48.792;9.202;2023-03-01T17:29:30;2.90;1.00
9760;DHT22;4919;48.792;9.202;2023-03-01T17:32:15;2.80;1.00
9760;DHT22;4919;48.792;9.202;2023-03-01T17:35:00;2.60;1.00
9760;DHT22;4919;48.792;9.202;2023-03-01T17:37:45;2.50;1.00
9760;DHT22;4919;48.792;9.202;2023-03-01T17:40:30;2.40;1.00
9760;DHT22;4919;48.792;9.202;2023-03-01T17:43:16;2.40;1.00
9760;DHT22;4919;48.792;9.202;2023-03-01T17:46:01;2.30;1.00
9760;DHT22;4919;48.792;9.202;2023-03-01T17:48:46;2.30;1.00
9760;DHT22;4919;48.792;9.202;2023-03-01T17:51:30;2.20;1.00
9760;DHT22;4919;48.792;9.202;2023-03-01T17:54:15;2.10;1.00
9760;DHT22;4919;48.792;9.202;2023-03-01T17:57:00;2.00;1.00
9760;DHT22;4919;48.792;9.202;2023-03-01T17:59:45;1.90;1.00
9760;DHT22;4919;48.792;9.202;2023-03-01T18:02:30;1.80;1.00
9760;DHT22;4919;48.792;9.202;2023-03-01T18:05:15;1.80;1.00
9760;DHT22;4919;48.792;9.202;2023-03-01T18:07:59;1.80;1.00
9760;DHT22;4919;48.792;9.202;2023-03-01T18:10:44;1.70;1.00
9760;DHT22;4919;48.792;9.202;2023-03-01T18:13:29;1.70;1.00
9760;DHT22;4919;48.792;9.202;2023-03-01T18:16:16;1.60;1.00
9760;DHT22;4919;48.792;9.202;2023-03-01T18:19:01;1.50;1.00
9760;DHT22;4919;48.792;9.202;2023-03-01T18:21:46;1.50;1.00
9760;DHT22;4919;48.792;9.202;2023-03-01T18:24:30;1.50;1.00
9760;DHT22;4919;48.792;9.202;2023-03-01T18:27:15;1.40;1.00
9760;DHT22;4919;48.792;9.202;2023-03-01T18:30:00;1.30;1.00
9760;DHT22;4919;48.792;9.202;2023-03-01T18:32:45;1.20;1.00
9760;DHT22;4919;48.792;9.202;2023-03-01T18:35:30;1.10;1.00
9760;DHT22;4919;48.792;9.202;2023-03-01T18:38:15;1.10;1.00
9760;DHT22;4919;48.792;9.202;2023-03-01T18:41:00;1.00;1.00
9760;DHT22;4919;48.792;9.202;2023-03-01T18:43:45;1.00;1.00
9760;DHT22;4919;48.792;9.202;2023-03-01T18:46:30;0.90;1.00
9760;DHT22;4919;48.792;9.202;2023-03-01T18:49:15;0.80;1.00
9760;DHT22;4919;48.792;9.202;2023-03-01T18:51:59;0.70;1.00
9760;DHT22;4919;48.792;9.202;2023-03-01T18:54:44;0.60;1.00
9760;DHT22;4919;48.792;9.202;2023-03-01T18:57:29;0.60;1.00
9760;DHT22;4919;48.792;9.202;2023-03-01T19:00:14;0.60;1.00
9760;DHT22;4919;48.792;9.202;2023-03-01T19:02:59;0.60;1.00
9760;DHT22;4919;48.792;9.202;2023-03-01T19:05:44;0.60;1.00
9760;DHT22;4919;48.792;9.202;2023-03-01T19:08:30;0.50;1.00
9760;DHT22;4919;48.792;9.202;2023-03-01T19:11:15;0.40;1.00
9760;DHT22;4919;48.792;9.202;2023-03-01T19:14:01;0.30;1.00
9760;DHT22;4919;48.792;9.202;2023-03-01T19:16:45;0.30;1.00
9760;DHT22;4919;48.792;9.202;2023-03-01T19:19:30;0.30;1.00
9760;DHT22;4919;48.792;9.202;2023-03-01T19:22:15;0.30;1.00
9760;DHT22;4919;48.792;9.202;2023-03-01T19:25:00;0.30;1.00
9760;DHT22;4919;48.792;9.202;2023-03-01T19:27:45;0.30;1.00
9760;DHT22;4919;48.792;9.202;2023-03-01T19:30:30;0.20;1.00
9760;DHT22;4919;48.792;9.202;2023-03-01T19:33:15;0.20;1.00
9760;DHT22;4919;48.792;9.202;2023-03-01T19:36:01;0.20;1.00
9760;DHT22;4919;48.792;9.202;2023-03-01T19:38:46;0.10;1.00
9760;DHT22;4919;48.792;9.202;2023-03-01T19:41:32;-0.10;1.00
9760;DHT22;4919;48.792;9.202;2023-03-01T19:44:16;-0.10;1.00
9760;DHT22;4919;48.792;9.202;2023-03-01T19:47:01;-0.10;1.00
9760;DHT22;4919;48.792;9.202;2023-03-01T19:49:46;-0.20;1.00
9760;DHT22;4919;48.792;9.202;2023-03-01T19:52:31;-0.20;1.00
9760;DHT22;4919;48.792;9.202;2023-03-01T19:55:16;-0.20;1.00
9760;DHT22;4919;48.792;9.202;2023-03-01T19:58:01;-0.20;1.00